CheckWX is a tool to help pilots better visualize weather data.  It is not intended as a substitute for an official pre-flight weather briefing.

17:35:12 UTC

KGTF METAR
Great Falls International Airport
Great Falls, Montana, USA
Current

42 mins ago

KGTF 211653Z 00000KT 10SM CLR 17/06 A3029 RMK AO2 SLP249 T01670061
Observed
Jul-21 @ 16:53 UTC
Visibility
10 SM
Flight Rules
VFR
Cloud Levels
  • Clear skies
Temperature
17°C / 63°F
Dewpoint
C / 43°F
Humidity
49%
Altimeter
30.29" Hg
Pressure
1025.72 hPa
Previous

2 hours ago

KGTF 211553Z 09005KT 10SM CLR 15/07 A3030 RMK AO2 SLP254 T01500072
Observed
Jul-21 @ 15:53 UTC
Wind
  • 090° at 5 KTS
Visibility
10 SM
Flight Rules
VFR
Cloud Levels
  • Clear skies
Temperature
15°C / 59°F
Dewpoint
C / 45°F
Humidity
59%
Altimeter
30.3" Hg
Pressure
1026.12 hPa
Previous

3 hours ago

KGTF 211453Z 00000KT 10SM CLR 12/07 A3030 RMK AO2 SLP254 T01220072 50010
Observed
Jul-21 @ 14:53 UTC
Visibility
10 SM
Flight Rules
VFR
Cloud Levels
  • Clear skies
Temperature
12°C / 54°F
Dewpoint
C / 45°F
Humidity
72%
Altimeter
30.3" Hg
Pressure
1026.12 hPa